sensor_id;sensor_type;location;lat;lon;timestamp;P1;durP1;ratioP1;P2;durP2;ratioP2
5569;SDS011;2808;51.240;6.794;2022-08-04T00:00:30;14.23;;;2.70;;
5569;SDS011;2808;51.240;6.794;2022-08-04T00:03:08;13.17;;;2.60;;
5569;SDS011;2808;51.240;6.794;2022-08-04T00:05:45;10.53;;;1.77;;
5569;SDS011;2808;51.240;6.794;2022-08-04T00:08:21;12.30;;;2.80;;
5569;SDS011;2808;51.240;6.794;2022-08-04T00:10:56;10.50;;;2.50;;
5569;SDS011;2808;51.240;6.794;2022-08-04T00:13:26;10.30;;;2.20;;
5569;SDS011;2808;51.240;6.794;2022-08-04T00:15:57;10.50;;;2.27;;
5569;SDS011;2808;51.240;6.794;2022-08-04T00:18:31;10.53;;;2.67;;
5569;SDS011;2808;51.240;6.794;2022-08-04T00:21:09;15.53;;;2.43;;
5569;SDS011;2808;51.240;6.794;2022-08-04T00:23:38;7.10;;;2.30;;
5569;SDS011;2808;51.240;6.794;2022-08-04T00:26:10;15.27;;;2.60;;
5569;SDS011;2808;51.240;6.794;2022-08-04T00:28:57;9.97;;;2.23;;
5569;SDS011;2808;51.240;6.794;2022-08-04T00:34:19;10.87;;;2.23;;
5569;SDS011;2808;51.240;6.794;2022-08-04T00:40:14;15.93;;;2.40;;
5569;SDS011;2808;51.240;6.794;2022-08-04T01:06:11;11.20;;;2.57;;
5569;SDS011;2808;51.240;6.794;2022-08-04T01:29:36;15.70;;;2.40;;
5569;SDS011;2808;51.240;6.794;2022-08-04T01:32:43;11.40;;;2.13;;
5569;SDS011;2808;51.240;6.794;2022-08-04T01:42:12;9.83;;;2.27;;
5569;SDS011;2808;51.240;6.794;2022-08-04T01:48:14;8.27;;;2.50;;
5569;SDS011;2808;51.240;6.794;2022-08-04T01:51:11;6.93;;;1.80;;
5569;SDS011;2808;51.240;6.794;2022-08-04T01:56:56;14.13;;;2.43;;
5569;SDS011;2808;51.240;6.794;2022-08-04T01:59:39;8.80;;;2.03;;
5569;SDS011;2808;51.240;6.794;2022-08-04T02:02:38;14.27;;;2.63;;
5569;SDS011;2808;51.240;6.794;2022-08-04T02:05:31;7.00;;;2.30;;
5569;SDS011;2808;51.240;6.794;2022-08-04T02:08:13;18.70;;;2.30;;
5569;SDS011;2808;51.240;6.794;2022-08-04T02:11:05;8.80;;;2.40;;
5569;SDS011;2808;51.240;6.794;2022-08-04T02:14:41;14.03;;;2.97;;
5569;SDS011;2808;51.240;6.794;2022-08-04T02:18:00;10.60;;;2.60;;
5569;SDS011;2808;51.240;6.794;2022-08-04T02:21:11;13.10;;;2.73;;
5569;SDS011;2808;51.240;6.794;2022-08-04T02:23:49;10.23;;;2.83;;
5569;SDS011;2808;51.240;6.794;2022-08-04T02:26:34;9.60;;;3.30;;
5569;SDS011;2808;51.240;6.794;2022-08-04T02:29:25;10.20;;;2.90;;
5569;SDS011;2808;51.240;6.794;2022-08-04T02:32:11;8.83;;;2.53;;
5569;SDS011;2808;51.240;6.794;2022-08-04T02:35:28;11.20;;;3.00;;
5569;SDS011;2808;51.240;6.794;2022-08-04T02:41:22;9.63;;;2.37;;
5569;SDS011;2808;51.240;6.794;2022-08-04T02:48:08;7.47;;;2.27;;
5569;SDS011;2808;51.240;6.794;2022-08-04T02:54:38;17.30;;;3.00;;
5569;SDS011;2808;51.240;6.794;2022-08-04T02:57:29;11.77;;;2.80;;
5569;SDS011;2808;51.240;6.794;2022-08-04T03:00:19;11.93;;;2.77;;
5569;SDS011;2808;51.240;6.794;2022-08-04T03:03:20;12.37;;;2.50;;
5569;SDS011;2808;51.240;6.794;2022-08-04T03:09:50;15.57;;;3.07;;
5569;SDS011;2808;51.240;6.794;2022-08-04T03:23:05;11.70;;;3.10;;
5569;SDS011;2808;51.240;6.794;2022-08-04T04:07:01;7.77;;;3.00;;
5569;SDS011;2808;51.240;6.794;2022-08-04T04:10:38;9.57;;;2.90;;
5569;SDS011;2808;51.240;6.794;2022-08-04T04:14:02;10.27;;;3.37;;
5569;SDS011;2808;51.240;6.794;2022-08-04T04:27:47;10.87;;;4.57;;
5569;SDS011;2808;51.240;6.794;2022-08-04T04:30:10;12.30;;;3.63;;
5569;SDS011;2808;51.240;6.794;2022-08-04T04:33:11;13.17;;;3.33;;
5569;SDS011;2808;51.240;6.794;2022-08-04T04:39:38;8.20;;;2.63;;
5569;SDS011;2808;51.240;6.794;2022-08-04T04:42:37;8.53;;;2.93;;
5569;SDS011;2808;51.240;6.794;2022-08-04T04:45:21;7.30;;;2.83;;
5569;SDS011;2808;51.240;6.794;2022-08-04T04:48:04;10.70;;;3.90;;
5569;SDS011;2808;51.240;6.794;2022-08-04T04:50:43;16.53;;;3.60;;
5569;SDS011;2808;51.240;6.794;2022-08-04T04:53:23;9.13;;;3.60;;
5569;SDS011;2808;51.240;6.794;2022-08-04T04:55:59;13.60;;;3.70;;
5569;SDS011;2808;51.240;6.794;2022-08-04T04:58:38;13.30;;;3.70;;
5569;SDS011;2808;51.240;6.794;2022-08-04T05:01:18;11.97;;;4.10;;
5569;SDS011;2808;51.240;6.794;2022-08-04T05:07:09;10.57;;;3.90;;
5569;SDS011;2808;51.240;6.794;2022-08-04T05:10:18;14.17;;;4.10;;
5569;SDS011;2808;51.240;6.794;2022-08-04T05:13:20;20.20;;;5.47;;
5569;SDS011;2808;51.240;6.794;2022-08-04T05:16:13;29.67;;;8.13;;
5569;SDS011;2808;51.240;6.794;2022-08-04T05:19:09;31.43;;;7.60;;
5569;SDS011;2808;51.240;6.794;2022-08-04T05:21:55;47.67;;;9.50;;
5569;SDS011;2808;51.240;6.794;2022-08-04T05:24:37;35.10;;;8.10;;
5569;SDS011;2808;51.240;6.794;2022-08-04T05:30:40;15.93;;;5.30;;
5569;SDS011;2808;51.240;6.794;2022-08-04T05:33:49;23.53;;;7.33;;
5569;SDS011;2808;51.240;6.794;2022-08-04T05:36:54;30.80;;;7.57;;
5569;SDS011;2808;51.240;6.794;2022-08-04T05:40:16;34.53;;;7.23;;
5569;SDS011;2808;51.240;6.794;2022-08-04T06:00:24;15.80;;;5.50;;
5569;SDS011;2808;51.240;6.794;2022-08-04T06:03:13;22.80;;;5.50;;
5569;SDS011;2808;51.240;6.794;2022-08-04T06:05:41;22.10;;;6.33;;
5569;SDS011;2808;51.240;6.794;2022-08-04T06:08:10;32.17;;;5.80;;
5569;SDS011;2808;51.240;6.794;2022-08-04T06:10:38;20.30;;;4.97;;
5569;SDS011;2808;51.240;6.794;2022-08-04T06:13:09;13.03;;;4.40;;
5569;SDS011;2808;51.240;6.794;2022-08-04T06:15:40;17.60;;;5.00;;
5569;SDS011;2808;51.240;6.794;2022-08-04T06:18:17;33.30;;;6.70;;
5569;SDS011;2808;51.240;6.794;2022-08-04T06:20:46;21.67;;;5.50;;
5569;SDS011;2808;51.240;6.794;2022-08-04T06:23:17;20.63;;;4.77;;
5569;SDS011;2808;51.240;6.794;2022-08-04T06:25:46;18.60;;;5.67;;
5569;SDS011;2808;51.240;6.794;2022-08-04T06:28:16;16.80;;;5.57;;
5569;SDS011;2808;51.240;6.794;2022-08-04T06:30:46;19.97;;;5.00;;
5569;SDS011;2808;51.240;6.794;2022-08-04T06:33:15;30.70;;;8.90;;
5569;SDS011;2808;51.240;6.794;2022-08-04T06:35:51;30.20;;;9.40;;
5569;SDS011;2808;51.240;6.794;2022-08-04T06:38:20;22.83;;;8.27;;
5569;SDS011;2808;51.240;6.794;2022-08-04T06:40:51;9.53;;;4.23;;
5569;SDS011;2808;51.240;6.794;2022-08-04T06:43:22;21.60;;;5.07;;
5569;SDS011;2808;51.240;6.794;2022-08-04T06:45:51;13.83;;;5.20;;
5569;SDS011;2808;51.240;6.794;2022-08-04T06:48:20;28.90;;;4.90;;
5569;SDS011;2808;51.240;6.794;2022-08-04T06:50:49;15.40;;;4.83;;
5569;SDS011;2808;51.240;6.794;2022-08-04T06:53:18;14.43;;;4.60;;
5569;SDS011;2808;51.240;6.794;2022-08-04T06:55:46;22.50;;;5.77;;
5569;SDS011;2808;51.240;6.794;2022-08-04T06:58:15;19.83;;;4.80;;
5569;SDS011;2808;51.240;6.794;2022-08-04T07:00:45;18.57;;;5.60;;
5569;SDS011;2808;51.240;6.794;2022-08-04T07:03:16;13.67;;;5.80;;
5569;SDS011;2808;51.240;6.794;2022-08-04T07:05:45;13.53;;;5.30;;
5569;SDS011;2808;51.240;6.794;2022-08-04T07:08:13;17.67;;;5.13;;
5569;SDS011;2808;51.240;6.794;2022-08-04T07:10:41;20.27;;;4.20;;
5569;SDS011;2808;51.240;6.794;2022-08-04T07:13:11;11.80;;;4.27;;
5569;SDS011;2808;51.240;6.794;2022-08-04T07:15:40;9.17;;;3.87;;
5569;SDS011;2808;51.240;6.794;2022-08-04T07:18:10;10.03;;;3.87;;
5569;SDS011;2808;51.240;6.794;2022-08-04T07:20:40;9.27;;;3.67;;
5569;SDS011;2808;51.240;6.794;2022-08-04T07:23:09;22.70;;;6.17;;
5569;SDS011;2808;51.240;6.794;2022-08-04T07:25:41;25.63;;;6.93;;
5569;SDS011;2808;51.240;6.794;2022-08-04T07:28:09;45.93;;;10.57;;
5569;SDS011;2808;51.240;6.794;2022-08-04T07:30:38;21.00;;;7.00;;
5569;SDS011;2808;51.240;6.794;2022-08-04T07:33:09;38.73;;;10.17;;
5569;SDS011;2808;51.240;6.794;2022-08-04T07:35:41;26.53;;;8.53;;
5569;SDS011;2808;51.240;6.794;2022-08-04T07:38:10;18.07;;;5.43;;
5569;SDS011;2808;51.240;6.794;2022-08-04T07:40:38;11.27;;;4.53;;
5569;SDS011;2808;51.240;6.794;2022-08-04T07:43:06;24.40;;;6.30;;
5569;SDS011;2808;51.240;6.794;2022-08-04T07:45:35;13.13;;;4.67;;
5569;SDS011;2808;51.240;6.794;2022-08-04T07:48:03;25.70;;;6.33;;
5569;SDS011;2808;51.240;6.794;2022-08-04T07:50:31;12.13;;;3.83;;
5569;SDS011;2808;51.240;6.794;2022-08-04T07:53:00;5.73;;;2.90;;
5569;SDS011;2808;51.240;6.794;2022-08-04T07:55:28;8.27;;;3.43;;
5569;SDS011;2808;51.240;6.794;2022-08-04T07:57:56;9.80;;;3.27;;
5569;SDS011;2808;51.240;6.794;2022-08-04T08:00:24;7.70;;;3.53;;
5569;SDS011;2808;51.240;6.794;2022-08-04T08:02:51;10.50;;;3.20;;
5569;SDS011;2808;51.240;6.794;2022-08-04T08:05:20;7.43;;;3.23;;
5569;SDS011;2808;51.240;6.794;2022-08-04T08:07:48;10.00;;;3.80;;
5569;SDS011;2808;51.240;6.794;2022-08-04T08:10:17;10.73;;;3.43;;
5569;SDS011;2808;51.240;6.794;2022-08-04T08:12:45;12.27;;;3.67;;
5569;SDS011;2808;51.240;6.794;2022-08-04T08:15:14;6.70;;;3.00;;
5569;SDS011;2808;51.240;6.794;2022-08-04T08:17:45;7.03;;;2.90;;
5569;SDS011;2808;51.240;6.794;2022-08-04T08:20:12;8.67;;;4.70;;
5569;SDS011;2808;51.240;6.794;2022-08-04T08:22:45;9.20;;;3.60;;
5569;SDS011;2808;51.240;6.794;2022-08-04T08:25:13;9.93;;;3.10;;
5569;SDS011;2808;51.240;6.794;2022-08-04T08:27:45;10.10;;;3.50;;
5569;SDS011;2808;51.240;6.794;2022-08-04T08:30:13;5.70;;;3.00;;
5569;SDS011;2808;51.240;6.794;2022-08-04T08:32:41;15.47;;;4.37;;
5569;SDS011;2808;51.240;6.794;2022-08-04T08:35:10;10.80;;;3.50;;
5569;SDS011;2808;51.240;6.794;2022-08-04T08:37:40;14.07;;;3.90;;
5569;SDS011;2808;51.240;6.794;2022-08-04T08:40:20;18.33;;;5.17;;
5569;SDS011;2808;51.240;6.794;2022-08-04T08:43:09;12.63;;;4.47;;
5569;SDS011;2808;51.240;6.794;2022-08-04T08:54:53;14.07;;;4.00;;
5569;SDS011;2808;51.240;6.794;2022-08-04T08:57:38;20.43;;;4.80;;
5569;SDS011;2808;51.240;6.794;2022-08-04T09:00:17;14.83;;;4.77;;
5569;SDS011;2808;51.240;6.794;2022-08-04T09:03:05;22.13;;;5.70;;
5569;SDS011;2808;51.240;6.794;2022-08-04T09:06:17;12.00;;;4.23;;
5569;SDS011;2808;51.240;6.794;2022-08-04T09:09:12;11.93;;;3.80;;
5569;SDS011;2808;51.240;6.794;2022-08-04T09:12:08;15.10;;;3.43;;
5569;SDS011;2808;51.240;6.794;2022-08-04T09:14:50;7.50;;;3.10;;
5569;SDS011;2808;51.240;6.794;2022-08-04T09:17:32;13.47;;;4.07;;
5569;SDS011;2808;51.240;6.794;2022-08-04T09:20:06;10.03;;;3.53;;
5569;SDS011;2808;51.240;6.794;2022-08-04T09:22:42;5.50;;;2.80;;
5569;SDS011;2808;51.240;6.794;2022-08-04T09:25:17;17.20;;;3.83;;
5569;SDS011;2808;51.240;6.794;2022-08-04T09:27:50;10.17;;;3.30;;
5569;SDS011;2808;51.240;6.794;2022-08-04T09:30:22;6.33;;;3.30;;
5569;SDS011;2808;51.240;6.794;2022-08-04T09:32:57;8.00;;;3.30;;
5569;SDS011;2808;51.240;6.794;2022-08-04T09:35:39;7.90;;;3.50;;
5569;SDS011;2808;51.240;6.794;2022-08-04T09:38:15;8.43;;;3.37;;
5569;SDS011;2808;51.240;6.794;2022-08-04T09:40:47;8.50;;;3.53;;
5569;SDS011;2808;51.240;6.794;2022-08-04T09:43:27;6.77;;;2.77;;
5569;SDS011;2808;51.240;6.794;2022-08-04T09:46:05;11.07;;;3.43;;
5569;SDS011;2808;51.240;6.794;2022-08-04T09:48:50;18.23;;;3.20;;
5569;SDS011;2808;51.240;6.794;2022-08-04T09:51:24;8.90;;;3.20;;
5569;SDS011;2808;51.240;6.794;2022-08-04T09:54:05;7.30;;;2.57;;
5569;SDS011;2808;51.240;6.794;2022-08-04T09:57:00;5.60;;;2.57;;
5569;SDS011;2808;51.240;6.794;2022-08-04T09:59:38;9.20;;;3.00;;
5569;SDS011;2808;51.240;6.794;2022-08-04T10:02:13;10.10;;;2.77;;
5569;SDS011;2808;51.240;6.794;2022-08-04T10:04:43;9.87;;;3.47;;
5569;SDS011;2808;51.240;6.794;2022-08-04T10:07:16;6.47;;;3.60;;
5569;SDS011;2808;51.240;6.794;2022-08-04T10:10:02;8.60;;;2.67;;
5569;SDS011;2808;51.240;6.794;2022-08-04T10:12:42;8.00;;;2.90;;
5569;SDS011;2808;51.240;6.794;2022-08-04T10:15:32;10.67;;;2.60;;
5569;SDS011;2808;51.240;6.794;2022-08-04T10:18:14;6.50;;;3.00;;
5569;SDS011;2808;51.240;6.794;2022-08-04T10:20:54;19.37;;;3.40;;
5569;SDS011;2808;51.240;6.794;2022-08-04T10:23:32;9.50;;;2.73;;
5569;SDS011;2808;51.240;6.794;2022-08-04T10:26:15;9.97;;;3.20;;
5569;SDS011;2808;51.240;6.794;2022-08-04T10:29:00;11.33;;;2.83;;
5569;SDS011;2808;51.240;6.794;2022-08-04T10:31:34;9.13;;;2.53;;
5569;SDS011;2808;51.240;6.794;2022-08-04T10:34:10;9.20;;;2.43;;
5569;SDS011;2808;51.240;6.794;2022-08-04T10:36:44;8.43;;;3.10;;
5569;SDS011;2808;51.240;6.794;2022-08-04T10:39:24;10.27;;;2.77;;
5569;SDS011;2808;51.240;6.794;2022-08-04T10:42:02;23.80;;;2.90;;
5569;SDS011;2808;51.240;6.794;2022-08-04T10:44:39;14.97;;;2.93;;
5569;SDS011;2808;51.240;6.794;2022-08-04T10:47:21;20.27;;;2.87;;
5569;SDS011;2808;51.240;6.794;2022-08-04T10:49:54;9.10;;;2.60;;
5569;SDS011;2808;51.240;6.794;2022-08-04T10:52:28;11.07;;;3.00;;
5569;SDS011;2808;51.240;6.794;2022-08-04T10:55:04;12.07;;;2.63;;
5569;SDS011;2808;51.240;6.794;2022-08-04T10:57:38;11.40;;;2.33;;
5569;SDS011;2808;51.240;6.794;2022-08-04T11:00:09;7.40;;;2.00;;
5569;SDS011;2808;51.240;6.794;2022-08-04T11:02:42;7.47;;;2.33;;
5569;SDS011;2808;51.240;6.794;2022-08-04T11:05:29;8.50;;;1.90;;
5569;SDS011;2808;51.240;6.794;2022-08-04T11:08:02;8.33;;;2.20;;
5569;SDS011;2808;51.240;6.794;2022-08-04T11:10:36;5.00;;;2.33;;
5569;SDS011;2808;51.240;6.794;2022-08-04T11:13:09;8.93;;;2.30;;
5569;SDS011;2808;51.240;6.794;2022-08-04T11:15:46;11.33;;;2.80;;
5569;SDS011;2808;51.240;6.794;2022-08-04T11:18:22;10.87;;;2.77;;
5569;SDS011;2808;51.240;6.794;2022-08-04T11:20:58;25.93;;;2.83;;
5569;SDS011;2808;51.240;6.794;2022-08-04T11:23:34;7.17;;;2.40;;
5569;SDS011;2808;51.240;6.794;2022-08-04T11:26:23;7.87;;;2.27;;
5569;SDS011;2808;51.240;6.794;2022-08-04T11:29:07;8.93;;;2.57;;
5569;SDS011;2808;51.240;6.794;2022-08-04T11:31:43;6.93;;;2.60;;
5569;SDS011;2808;51.240;6.794;2022-08-04T11:34:17;8.93;;;2.03;;
5569;SDS011;2808;51.240;6.794;2022-08-04T11:36:54;9.80;;;2.60;;
5569;SDS011;2808;51.240;6.794;2022-08-04T11:39:27;9.00;;;2.87;;
5569;SDS011;2808;51.240;6.794;2022-08-04T11:42:04;7.97;;;2.77;;
5569;SDS011;2808;51.240;6.794;2022-08-04T11:44:42;10.60;;;2.73;;
5569;SDS011;2808;51.240;6.794;2022-08-04T11:47:18;9.73;;;2.27;;
5569;SDS011;2808;51.240;6.794;2022-08-04T11:50:04;6.53;;;2.77;;
5569;SDS011;2808;51.240;6.794;2022-08-04T11:52:38;11.77;;;2.90;;
5569;SDS011;2808;51.240;6.794;2022-08-04T11:55:09;16.63;;;2.97;;
5569;SDS011;2808;51.240;6.794;2022-08-04T11:57:43;5.93;;;2.50;;
5569;SDS011;2808;51.240;6.794;2022-08-04T12:00:16;11.23;;;2.40;;
5569;SDS011;2808;51.240;6.794;2022-08-04T12:06:03;5.53;;;2.47;;
5569;SDS011;2808;51.240;6.794;2022-08-04T12:11:42;10.80;;;3.00;;
5569;SDS011;2808;51.240;6.794;2022-08-04T12:14:21;9.07;;;2.53;;
5569;SDS011;2808;51.240;6.794;2022-08-04T12:16:57;10.03;;;2.20;;
5569;SDS011;2808;51.240;6.794;2022-08-04T12:19:34;9.80;;;2.10;;
5569;SDS011;2808;51.240;6.794;2022-08-04T12:22:09;9.00;;;2.37;;
5569;SDS011;2808;51.240;6.794;2022-08-04T12:24:44;5.87;;;2.30;;
5569;SDS011;2808;51.240;6.794;2022-08-04T12:27:15;5.20;;;2.40;;
5569;SDS011;2808;51.240;6.794;2022-08-04T12:29:52;9.23;;;2.10;;
5569;SDS011;2808;51.240;6.794;2022-08-04T12:32:24;6.43;;;2.60;;
5569;SDS011;2808;51.240;6.794;2022-08-04T12:34:59;10.30;;;2.73;;
5569;SDS011;2808;51.240;6.794;2022-08-04T12:37:47;5.00;;;2.50;;
5569;SDS011;2808;51.240;6.794;2022-08-04T12:40:30;10.23;;;2.40;;
5569;SDS011;2808;51.240;6.794;2022-08-04T12:43:04;7.33;;;2.57;;
5569;SDS011;2808;51.240;6.794;2022-08-04T12:45:41;9.13;;;2.50;;
5569;SDS011;2808;51.240;6.794;2022-08-04T12:48:11;13.03;;;2.90;;
5569;SDS011;2808;51.240;6.794;2022-08-04T12:50:40;8.83;;;2.70;;
5569;SDS011;2808;51.240;6.794;2022-08-04T12:53:12;8.20;;;3.00;;
5569;SDS011;2808;51.240;6.794;2022-08-04T12:55:45;7.50;;;2.73;;
5569;SDS011;2808;51.240;6.794;2022-08-04T12:58:19;8.33;;;2.87;;
5569;SDS011;2808;51.240;6.794;2022-08-04T13:01:16;10.30;;;2.60;;
5569;SDS011;2808;51.240;6.794;2022-08-04T13:03:51;8.50;;;2.50;;
5569;SDS011;2808;51.240;6.794;2022-08-04T13:06:35;11.80;;;2.97;;
5569;SDS011;2808;51.240;6.794;2022-08-04T13:09:06;9.20;;;2.70;;
5569;SDS011;2808;51.240;6.794;2022-08-04T13:11:51;8.47;;;2.30;;
5569;SDS011;2808;51.240;6.794;2022-08-04T13:17:39;10.10;;;2.50;;
5569;SDS011;2808;51.240;6.794;2022-08-04T13:20:18;7.40;;;2.83;;
5569;SDS011;2808;51.240;6.794;2022-08-04T13:23:03;5.83;;;2.53;;
5569;SDS011;2808;51.240;6.794;2022-08-04T13:25:35;7.33;;;2.30;;
5569;SDS011;2808;51.240;6.794;2022-08-04T13:28:14;7.10;;;2.60;;
5569;SDS011;2808;51.240;6.794;2022-08-04T13:30:52;12.93;;;2.70;;
5569;SDS011;2808;51.240;6.794;2022-08-04T13:33:27;6.13;;;2.20;;
5569;SDS011;2808;51.240;6.794;2022-08-04T13:35:57;4.93;;;2.33;;
5569;SDS011;2808;51.240;6.794;2022-08-04T13:38:44;8.23;;;2.17;;
5569;SDS011;2808;51.240;6.794;2022-08-04T13:41:19;5.70;;;1.80;;
5569;SDS011;2808;51.240;6.794;2022-08-04T13:43:51;6.27;;;2.23;;
5569;SDS011;2808;51.240;6.794;2022-08-04T13:46:24;8.00;;;2.40;;
5569;SDS011;2808;51.240;6.794;2022-08-04T13:48:54;6.57;;;2.30;;
5569;SDS011;2808;51.240;6.794;2022-08-04T13:51:22;10.23;;;2.60;;
5569;SDS011;2808;51.240;6.794;2022-08-04T13:53:55;9.23;;;2.30;;
5569;SDS011;2808;51.240;6.794;2022-08-04T13:56:26;5.93;;;2.20;;
5569;SDS011;2808;51.240;6.794;2022-08-04T13:59:02;12.77;;;3.00;;
5569;SDS011;2808;51.240;6.794;2022-08-04T14:01:37;9.87;;;2.40;;
5569;SDS011;2808;51.240;6.794;2022-08-04T14:04:11;12.83;;;2.87;;
5569;SDS011;2808;51.240;6.794;2022-08-04T14:06:48;9.23;;;2.60;;
5569;SDS011;2808;51.240;6.794;2022-08-04T14:09:25;7.83;;;2.30;;
5569;SDS011;2808;51.240;6.794;2022-08-04T14:12:05;6.90;;;2.60;;
5569;SDS011;2808;51.240;6.794;2022-08-04T14:14:35;6.27;;;2.40;;
5569;SDS011;2808;51.240;6.794;2022-08-04T14:17:13;5.93;;;2.87;;
5569;SDS011;2808;51.240;6.794;2022-08-04T14:19:52;6.93;;;2.43;;
5569;SDS011;2808;51.240;6.794;2022-08-04T14:22:36;6.43;;;2.80;;
5569;SDS011;2808;51.240;6.794;2022-08-04T14:25:10;9.73;;;2.77;;
5569;SDS011;2808;51.240;6.794;2022-08-04T14:27:40;7.90;;;2.47;;
5569;SDS011;2808;51.240;6.794;2022-08-04T14:30:26;8.00;;;2.70;;
5569;SDS011;2808;51.240;6.794;2022-08-04T14:32:56;6.77;;;2.50;;
5569;SDS011;2808;51.240;6.794;2022-08-04T14:35:27;9.23;;;2.50;;
5569;SDS011;2808;51.240;6.794;2022-08-04T14:37:57;8.27;;;3.43;;
5569;SDS011;2808;51.240;6.794;2022-08-04T14:40:26;9.07;;;2.53;;
5569;SDS011;2808;51.240;6.794;2022-08-04T14:42:56;6.57;;;2.30;;
5569;SDS011;2808;51.240;6.794;2022-08-04T14:45:29;4.67;;;2.33;;
5569;SDS011;2808;51.240;6.794;2022-08-04T14:48:10;11.57;;;2.83;;
5569;SDS011;2808;51.240;6.794;2022-08-04T14:50:40;5.40;;;2.30;;
5569;SDS011;2808;51.240;6.794;2022-08-04T14:55:55;8.47;;;2.47;;
5569;SDS011;2808;51.240;6.794;2022-08-04T14:58:26;8.40;;;2.60;;
5569;SDS011;2808;51.240;6.794;2022-08-04T15:00:56;11.00;;;5.17;;
5569;SDS011;2808;51.240;6.794;2022-08-04T15:03:27;7.40;;;3.00;;
5569;SDS011;2808;51.240;6.794;2022-08-04T15:05:58;7.50;;;3.10;;
5569;SDS011;2808;51.240;6.794;2022-08-04T15:08:27;8.63;;;3.10;;
5569;SDS011;2808;51.240;6.794;2022-08-04T15:10:58;8.00;;;2.30;;
5569;SDS011;2808;51.240;6.794;2022-08-04T15:13:29;8.63;;;3.03;;
5569;SDS011;2808;51.240;6.794;2022-08-04T15:15:59;7.77;;;2.87;;
5569;SDS011;2808;51.240;6.794;2022-08-04T15:18:26;9.70;;;2.50;;
5569;SDS011;2808;51.240;6.794;2022-08-04T15:20:55;7.83;;;2.83;;
5569;SDS011;2808;51.240;6.794;2022-08-04T15:23:23;9.40;;;2.60;;
5569;SDS011;2808;51.240;6.794;2022-08-04T15:25:52;11.03;;;6.20;;
5569;SDS011;2808;51.240;6.794;2022-08-04T15:28:24;7.10;;;3.10;;
5569;SDS011;2808;51.240;6.794;2022-08-04T15:30:53;16.33;;;3.37;;
5569;SDS011;2808;51.240;6.794;2022-08-04T15:33:22;5.10;;;2.70;;
5569;SDS011;2808;51.240;6.794;2022-08-04T15:35:56;11.80;;;3.20;;
5569;SDS011;2808;51.240;6.794;2022-08-04T15:38:38;10.63;;;5.43;;
5569;SDS011;2808;51.240;6.794;2022-08-04T15:41:13;7.27;;;2.70;;
5569;SDS011;2808;51.240;6.794;2022-08-04T15:43:53;11.37;;;3.00;;
5569;SDS011;2808;51.240;6.794;2022-08-04T15:47:08;11.40;;;3.00;;
5569;SDS011;2808;51.240;6.794;2022-08-04T15:49:42;7.90;;;3.00;;
5569;SDS011;2808;51.240;6.794;2022-08-04T15:52:10;9.00;;;3.00;;
5569;SDS011;2808;51.240;6.794;2022-08-04T15:54:40;6.30;;;3.07;;
5569;SDS011;2808;51.240;6.794;2022-08-04T15:57:08;10.93;;;3.40;;
5569;SDS011;2808;51.240;6.794;2022-08-04T15:59:55;7.23;;;3.07;;
5569;SDS011;2808;51.240;6.794;2022-08-04T16:02:37;9.33;;;3.00;;
5569;SDS011;2808;51.240;6.794;2022-08-04T16:08:08;12.73;;;5.27;;
5569;SDS011;2808;51.240;6.794;2022-08-04T16:10:40;11.70;;;6.30;;
5569;SDS011;2808;51.240;6.794;2022-08-04T16:13:12;11.27;;;4.60;;
5569;SDS011;2808;51.240;6.794;2022-08-04T16:15:45;7.93;;;2.43;;
5569;SDS011;2808;51.240;6.794;2022-08-04T16:18:38;6.50;;;3.07;;
5569;SDS011;2808;51.240;6.794;2022-08-04T16:21:19;9.47;;;2.83;;
5569;SDS011;2808;51.240;6.794;2022-08-04T16:23:54;7.10;;;2.80;;
5569;SDS011;2808;51.240;6.794;2022-08-04T16:26:46;8.53;;;3.20;;
5569;SDS011;2808;51.240;6.794;2022-08-04T16:29:28;13.50;;;5.83;;
5569;SDS011;2808;51.240;6.794;2022-08-04T16:32:07;8.43;;;2.83;;
5569;SDS011;2808;51.240;6.794;2022-08-04T16:34:53;10.60;;;2.63;;
5569;SDS011;2808;51.240;6.794;2022-08-04T16:37:28;7.20;;;2.83;;
5569;SDS011;2808;51.240;6.794;2022-08-04T16:42:52;9.50;;;2.93;;
5569;SDS011;2808;51.240;6.794;2022-08-04T16:45:37;8.30;;;3.40;;
5569;SDS011;2808;51.240;6.794;2022-08-04T16:48:07;10.33;;;3.20;;
5569;SDS011;2808;51.240;6.794;2022-08-04T16:51:01;10.60;;;3.10;;
5569;SDS011;2808;51.240;6.794;2022-08-04T16:53:33;12.43;;;3.33;;
5569;SDS011;2808;51.240;6.794;2022-08-04T16:56:05;12.00;;;3.03;;
5569;SDS011;2808;51.240;6.794;2022-08-04T16:58:48;9.83;;;3.20;;
5569;SDS011;2808;51.240;6.794;2022-08-04T17:01:18;9.83;;;3.10;;
5569;SDS011;2808;51.240;6.794;2022-08-04T17:03:48;16.57;;;4.77;;
5569;SDS011;2808;51.240;6.794;2022-08-04T17:06:16;21.80;;;5.27;;
5569;SDS011;2808;51.240;6.794;2022-08-04T17:08:46;26.20;;;7.33;;
5569;SDS011;2808;51.240;6.794;2022-08-04T17:11:15;10.13;;;3.77;;
5569;SDS011;2808;51.240;6.794;2022-08-04T17:13:43;13.87;;;3.27;;
5569;SDS011;2808;51.240;6.794;2022-08-04T17:16:16;12.97;;;3.83;;
5569;SDS011;2808;51.240;6.794;2022-08-04T17:18:52;15.60;;;3.90;;
5569;SDS011;2808;51.240;6.794;2022-08-04T17:21:36;8.33;;;3.30;;
5569;SDS011;2808;51.240;6.794;2022-08-04T17:24:15;19.90;;;6.13;;
5569;SDS011;2808;51.240;6.794;2022-08-04T17:26:51;9.13;;;3.27;;
5569;SDS011;2808;51.240;6.794;2022-08-04T17:29:38;8.70;;;3.30;;
5569;SDS011;2808;51.240;6.794;2022-08-04T17:32:07;6.90;;;2.70;;
5569;SDS011;2808;51.240;6.794;2022-08-04T17:34:45;12.27;;;3.50;;
5569;SDS011;2808;51.240;6.794;2022-08-04T17:37:23;16.63;;;3.53;;
5569;SDS011;2808;51.240;6.794;2022-08-04T17:39:52;13.60;;;3.70;;
5569;SDS011;2808;51.240;6.794;2022-08-04T17:42:33;15.90;;;4.93;;
5569;SDS011;2808;51.240;6.794;2022-08-04T17:45:05;11.83;;;5.23;;
5569;SDS011;2808;51.240;6.794;2022-08-04T17:47:47;10.07;;;3.27;;
5569;SDS011;2808;51.240;6.794;2022-08-04T17:50:22;16.50;;;3.30;;
5569;SDS011;2808;51.240;6.794;2022-08-04T17:53:00;11.10;;;3.70;;
5569;SDS011;2808;51.240;6.794;2022-08-04T17:55:46;11.00;;;3.00;;
5569;SDS011;2808;51.240;6.794;2022-08-04T17:58:17;7.30;;;2.73;;
5569;SDS011;2808;51.240;6.794;2022-08-04T18:00:47;10.33;;;3.00;;
5569;SDS011;2808;51.240;6.794;2022-08-04T18:03:24;16.57;;;4.13;;
5569;SDS011;2808;51.240;6.794;2022-08-04T18:05:53;13.97;;;3.70;;
5569;SDS011;2808;51.240;6.794;2022-08-04T18:08:24;14.17;;;5.10;;
5569;SDS011;2808;51.240;6.794;2022-08-04T18:10:53;11.90;;;4.50;;
5569;SDS011;2808;51.240;6.794;2022-08-04T18:13:21;13.43;;;3.70;;
5569;SDS011;2808;51.240;6.794;2022-08-04T18:15:58;13.20;;;5.93;;
5569;SDS011;2808;51.240;6.794;2022-08-04T18:18:26;15.07;;;5.13;;
5569;SDS011;2808;51.240;6.794;2022-08-04T18:20:54;16.63;;;4.07;;
5569;SDS011;2808;51.240;6.794;2022-08-04T18:23:25;17.93;;;4.33;;
5569;SDS011;2808;51.240;6.794;2022-08-04T18:25:54;14.30;;;3.67;;
5569;SDS011;2808;51.240;6.794;2022-08-04T18:28:21;13.73;;;3.80;;
5569;SDS011;2808;51.240;6.794;2022-08-04T18:30:49;15.30;;;3.67;;
5569;SDS011;2808;51.240;6.794;2022-08-04T18:33:16;12.00;;;3.50;;
5569;SDS011;2808;51.240;6.794;2022-08-04T18:35:44;16.73;;;4.03;;
5569;SDS011;2808;51.240;6.794;2022-08-04T18:38:11;16.10;;;3.40;;
5569;SDS011;2808;51.240;6.794;2022-08-04T18:40:39;9.93;;;3.77;;
5569;SDS011;2808;51.240;6.794;2022-08-04T18:43:07;10.33;;;3.67;;
5569;SDS011;2808;51.240;6.794;2022-08-04T18:45:35;12.30;;;4.07;;
5569;SDS011;2808;51.240;6.794;2022-08-04T18:48:03;12.27;;;4.17;;
5569;SDS011;2808;51.240;6.794;2022-08-04T18:50:33;12.00;;;3.63;;
5569;SDS011;2808;51.240;6.794;2022-08-04T18:53:01;11.53;;;4.80;;
5569;SDS011;2808;51.240;6.794;2022-08-04T18:55:29;14.90;;;7.80;;
5569;SDS011;2808;51.240;6.794;2022-08-04T18:57:56;12.30;;;5.73;;
5569;SDS011;2808;51.240;6.794;2022-08-04T19:00:26;21.23;;;9.70;;
5569;SDS011;2808;51.240;6.794;2022-08-04T19:02:55;10.57;;;3.70;;
5569;SDS011;2808;51.240;6.794;2022-08-04T19:05:23;9.40;;;2.93;;
5569;SDS011;2808;51.240;6.794;2022-08-04T19:07:50;12.73;;;3.40;;
5569;SDS011;2808;51.240;6.794;2022-08-04T19:10:18;11.13;;;4.10;;
5569;SDS011;2808;51.240;6.794;2022-08-04T19:12:45;10.17;;;4.30;;
5569;SDS011;2808;51.240;6.794;2022-08-04T19:15:13;13.83;;;5.40;;
5569;SDS011;2808;51.240;6.794;2022-08-04T19:17:42;27.70;;;14.20;;
5569;SDS011;2808;51.240;6.794;2022-08-04T19:20:09;19.80;;;9.20;;
5569;SDS011;2808;51.240;6.794;2022-08-04T19:22:37;9.30;;;3.60;;